sensor_id;sensor_type;location;lat;lon;timestamp;P1;durP1;ratioP1;P2;durP2;ratioP2
8640;SDS011;4358;42.100;25.222;2022-11-25T00:01:31;1.20;;;1.10;;
8640;SDS011;4358;42.100;25.222;2022-11-25T00:03:59;2.10;;;1.20;;
8640;SDS011;4358;42.100;25.222;2022-11-25T00:06:27;2.03;;;1.30;;
8640;SDS011;4358;42.100;25.222;2022-11-25T00:08:56;1.30;;;1.17;;
8640;SDS011;4358;42.100;25.222;2022-11-25T00:11:24;1.20;;;1.10;;
8640;SDS011;4358;42.100;25.222;2022-11-25T00:13:52;1.53;;;1.17;;
8640;SDS011;4358;42.100;25.222;2022-11-25T00:16:21;1.70;;;1.47;;
8640;SDS011;4358;42.100;25.222;2022-11-25T00:18:49;1.30;;;1.20;;
8640;SDS011;4358;42.100;25.222;2022-11-25T00:21:18;1.80;;;1.43;;
8640;SDS011;4358;42.100;25.222;2022-11-25T00:23:49;1.67;;;1.30;;
8640;SDS011;4358;42.100;25.222;2022-11-25T00:26:18;1.20;;;1.10;;
8640;SDS011;4358;42.100;25.222;2022-11-25T00:28:47;1.73;;;1.30;;
8640;SDS011;4358;42.100;25.222;2022-11-25T00:31:15;1.43;;;1.33;;
8640;SDS011;4358;42.100;25.222;2022-11-25T00:33:43;1.43;;;1.03;;
8640;SDS011;4358;42.100;25.222;2022-11-25T00:36:13;1.53;;;1.33;;
8640;SDS011;4358;42.100;25.222;2022-11-25T00:38:42;1.13;;;0.97;;
8640;SDS011;4358;42.100;25.222;2022-11-25T00:41:10;1.30;;;1.20;;
8640;SDS011;4358;42.100;25.222;2022-11-25T00:43:55;1.40;;;1.20;;
8640;SDS011;4358;42.100;25.222;2022-11-25T00:46:39;0.97;;;0.97;;
8640;SDS011;4358;42.100;25.222;2022-11-25T00:49:06;2.50;;;1.10;;
8640;SDS011;4358;42.100;25.222;2022-11-25T00:51:34;5.13;;;1.30;;
8640;SDS011;4358;42.100;25.222;2022-11-25T00:54:00;1.40;;;1.10;;
8640;SDS011;4358;42.100;25.222;2022-11-25T00:56:27;1.40;;;1.20;;
8640;SDS011;4358;42.100;25.222;2022-11-25T00:58:56;1.50;;;1.40;;
8640;SDS011;4358;42.100;25.222;2022-11-25T01:01:23;1.97;;;1.30;;
8640;SDS011;4358;42.100;25.222;2022-11-25T01:03:50;1.50;;;1.30;;
8640;SDS011;4358;42.100;25.222;2022-11-25T01:06:18;1.53;;;1.10;;
8640;SDS011;4358;42.100;25.222;2022-11-25T01:08:45;1.40;;;1.20;;
8640;SDS011;4358;42.100;25.222;2022-11-25T01:11:13;1.50;;;1.37;;
8640;SDS011;4358;42.100;25.222;2022-11-25T01:13:41;1.83;;;1.33;;
8640;SDS011;4358;42.100;25.222;2022-11-25T01:16:10;1.83;;;1.13;;
8640;SDS011;4358;42.100;25.222;2022-11-25T01:18:38;1.30;;;1.10;;
8640;SDS011;4358;42.100;25.222;2022-11-25T01:21:05;1.23;;;1.13;;
8640;SDS011;4358;42.100;25.222;2022-11-25T01:23:33;1.60;;;1.10;;
8640;SDS011;4358;42.100;25.222;2022-11-25T01:26:00;1.27;;;1.17;;
8640;SDS011;4358;42.100;25.222;2022-11-25T01:28:28;1.20;;;1.10;;
8640;SDS011;4358;42.100;25.222;2022-11-25T01:30:58;1.30;;;1.20;;
8640;SDS011;4358;42.100;25.222;2022-11-25T01:33:27;3.33;;;1.10;;
8640;SDS011;4358;42.100;25.222;2022-11-25T01:35:59;1.20;;;1.10;;
8640;SDS011;4358;42.100;25.222;2022-11-25T01:38:27;1.00;;;1.00;;
8640;SDS011;4358;42.100;25.222;2022-11-25T01:40:54;1.60;;;1.50;;
8640;SDS011;4358;42.100;25.222;2022-11-25T01:43:21;1.87;;;1.40;;
8640;SDS011;4358;42.100;25.222;2022-11-25T01:45:48;1.50;;;1.20;;
8640;SDS011;4358;42.100;25.222;2022-11-25T01:48:15;1.13;;;1.00;;
8640;SDS011;4358;42.100;25.222;2022-11-25T01:50:48;1.33;;;1.20;;
8640;SDS011;4358;42.100;25.222;2022-11-25T01:53:16;2.07;;;1.13;;
8640;SDS011;4358;42.100;25.222;2022-11-25T01:55:46;1.53;;;1.30;;
8640;SDS011;4358;42.100;25.222;2022-11-25T01:58:17;2.73;;;1.10;;
8640;SDS011;4358;42.100;25.222;2022-11-25T02:00:48;1.13;;;1.03;;
8640;SDS011;4358;42.100;25.222;2022-11-25T02:03:17;0.80;;;0.80;;
8640;SDS011;4358;42.100;25.222;2022-11-25T02:05:49;0.93;;;0.87;;
8640;SDS011;4358;42.100;25.222;2022-11-25T02:08:21;1.20;;;1.10;;
8640;SDS011;4358;42.100;25.222;2022-11-25T02:10:50;1.17;;;1.07;;
8640;SDS011;4358;42.100;25.222;2022-11-25T02:13:20;1.13;;;1.00;;
8640;SDS011;4358;42.100;25.222;2022-11-25T02:15:49;0.90;;;0.90;;
8640;SDS011;4358;42.100;25.222;2022-11-25T02:18:16;0.80;;;0.80;;
8640;SDS011;4358;42.100;25.222;2022-11-25T02:20:43;1.10;;;1.00;;
8640;SDS011;4358;42.100;25.222;2022-11-25T02:23:14;1.10;;;1.00;;
8640;SDS011;4358;42.100;25.222;2022-11-25T02:25:51;1.10;;;1.00;;
8640;SDS011;4358;42.100;25.222;2022-11-25T02:28:20;0.87;;;0.87;;
8640;SDS011;4358;42.100;25.222;2022-11-25T02:30:48;1.20;;;1.10;;
8640;SDS011;4358;42.100;25.222;2022-11-25T02:33:16;1.20;;;1.10;;
8640;SDS011;4358;42.100;25.222;2022-11-25T02:35:45;1.53;;;0.80;;
8640;SDS011;4358;42.100;25.222;2022-11-25T02:38:14;0.90;;;0.90;;
8640;SDS011;4358;42.100;25.222;2022-11-25T02:40:45;1.10;;;1.00;;
8640;SDS011;4358;42.100;25.222;2022-11-25T02:43:16;1.03;;;0.80;;
8640;SDS011;4358;42.100;25.222;2022-11-25T02:45:49;2.70;;;1.20;;
8640;SDS011;4358;42.100;25.222;2022-11-25T02:48:20;1.53;;;1.23;;
8640;SDS011;4358;42.100;25.222;2022-11-25T02:50:48;1.17;;;1.07;;
8640;SDS011;4358;42.100;25.222;2022-11-25T02:53:15;1.40;;;1.30;;
8640;SDS011;4358;42.100;25.222;2022-11-25T02:55:42;1.33;;;1.23;;
8640;SDS011;4358;42.100;25.222;2022-11-25T02:58:09;1.30;;;1.20;;
8640;SDS011;4358;42.100;25.222;2022-11-25T03:00:37;1.43;;;1.33;;
8640;SDS011;4358;42.100;25.222;2022-11-25T03:03:04;1.53;;;1.20;;
8640;SDS011;4358;42.100;25.222;2022-11-25T03:05:32;1.77;;;1.40;;
8640;SDS011;4358;42.100;25.222;2022-11-25T03:07:59;2.17;;;1.43;;
8640;SDS011;4358;42.100;25.222;2022-11-25T03:10:26;1.43;;;1.33;;
8640;SDS011;4358;42.100;25.222;2022-11-25T03:12:53;1.53;;;1.40;;
8640;SDS011;4358;42.100;25.222;2022-11-25T03:15:20;3.80;;;1.43;;
8640;SDS011;4358;42.100;25.222;2022-11-25T03:17:48;1.67;;;1.57;;
8640;SDS011;4358;42.100;25.222;2022-11-25T03:20:15;2.10;;;1.37;;
8640;SDS011;4358;42.100;25.222;2022-11-25T03:22:42;1.80;;;1.57;;
8640;SDS011;4358;42.100;25.222;2022-11-25T03:25:11;1.60;;;1.50;;
8640;SDS011;4358;42.100;25.222;2022-11-25T03:27:38;1.33;;;1.23;;
8640;SDS011;4358;42.100;25.222;2022-11-25T03:30:08;1.90;;;1.60;;
8640;SDS011;4358;42.100;25.222;2022-11-25T03:32:37;1.93;;;1.30;;
8640;SDS011;4358;42.100;25.222;2022-11-25T03:35:06;1.50;;;1.40;;
8640;SDS011;4358;42.100;25.222;2022-11-25T03:37:33;1.60;;;1.50;;
8640;SDS011;4358;42.100;25.222;2022-11-25T03:40:00;2.03;;;1.00;;
8640;SDS011;4358;42.100;25.222;2022-11-25T03:42:28;1.73;;;1.50;;
8640;SDS011;4358;42.100;25.222;2022-11-25T03:44:54;1.07;;;1.00;;
8640;SDS011;4358;42.100;25.222;2022-11-25T03:47:22;1.37;;;1.07;;
8640;SDS011;4358;42.100;25.222;2022-11-25T03:49:49;1.27;;;1.17;;
8640;SDS011;4358;42.100;25.222;2022-11-25T03:52:17;1.63;;;1.40;;
8640;SDS011;4358;42.100;25.222;2022-11-25T03:54:44;2.47;;;1.20;;
8640;SDS011;4358;42.100;25.222;2022-11-25T03:57:11;1.33;;;1.20;;
8640;SDS011;4358;42.100;25.222;2022-11-25T03:59:37;1.57;;;1.07;;
8640;SDS011;4358;42.100;25.222;2022-11-25T04:02:04;1.77;;;1.30;;
8640;SDS011;4358;42.100;25.222;2022-11-25T04:04:31;2.17;;;1.37;;
8640;SDS011;4358;42.100;25.222;2022-11-25T04:06:58;1.77;;;1.37;;
8640;SDS011;4358;42.100;25.222;2022-11-25T04:09:26;1.87;;;1.37;;
8640;SDS011;4358;42.100;25.222;2022-11-25T04:11:53;1.50;;;1.40;;
8640;SDS011;4358;42.100;25.222;2022-11-25T04:14:37;4.03;;;1.30;;
8640;SDS011;4358;42.100;25.222;2022-11-25T04:17:04;2.00;;;1.50;;
8640;SDS011;4358;42.100;25.222;2022-11-25T04:19:31;1.50;;;1.20;;
8640;SDS011;4358;42.100;25.222;2022-11-25T04:21:58;1.50;;;1.40;;
8640;SDS011;4358;42.100;25.222;2022-11-25T04:24:26;1.77;;;1.40;;
8640;SDS011;4358;42.100;25.222;2022-11-25T04:26:53;2.03;;;1.83;;
8640;SDS011;4358;42.100;25.222;2022-11-25T04:29:20;1.50;;;1.40;;
8640;SDS011;4358;42.100;25.222;2022-11-25T04:31:47;4.13;;;1.77;;
8640;SDS011;4358;42.100;25.222;2022-11-25T04:34:14;4.43;;;2.63;;
8640;SDS011;4358;42.100;25.222;2022-11-25T04:36:41;2.90;;;1.87;;
8640;SDS011;4358;42.100;25.222;2022-11-25T04:39:08;1.67;;;1.53;;
8640;SDS011;4358;42.100;25.222;2022-11-25T04:41:36;1.27;;;1.13;;
8640;SDS011;4358;42.100;25.222;2022-11-25T04:44:03;1.80;;;1.57;;
8640;SDS011;4358;42.100;25.222;2022-11-25T04:46:31;1.97;;;1.60;;
8640;SDS011;4358;42.100;25.222;2022-11-25T04:49:02;2.27;;;1.80;;
8640;SDS011;4358;42.100;25.222;2022-11-25T04:51:29;3.00;;;2.10;;
8640;SDS011;4358;42.100;25.222;2022-11-25T04:53:56;1.50;;;1.40;;
8640;SDS011;4358;42.100;25.222;2022-11-25T04:56:23;1.60;;;1.50;;
8640;SDS011;4358;42.100;25.222;2022-11-25T04:58:51;1.30;;;1.20;;
8640;SDS011;4358;42.100;25.222;2022-11-25T05:01:36;2.03;;;1.30;;
8640;SDS011;4358;42.100;25.222;2022-11-25T05:04:03;1.20;;;1.07;;
8640;SDS011;4358;42.100;25.222;2022-11-25T05:06:30;1.40;;;1.27;;
8640;SDS011;4358;42.100;25.222;2022-11-25T05:08:56;2.23;;;1.40;;
8640;SDS011;4358;42.100;25.222;2022-11-25T05:11:23;1.87;;;1.40;;
8640;SDS011;4358;42.100;25.222;2022-11-25T05:13:51;1.87;;;1.40;;
8640;SDS011;4358;42.100;25.222;2022-11-25T05:16:18;1.53;;;1.40;;
8640;SDS011;4358;42.100;25.222;2022-11-25T05:18:45;1.60;;;1.33;;
8640;SDS011;4358;42.100;25.222;2022-11-25T05:21:12;1.90;;;1.60;;
8640;SDS011;4358;42.100;25.222;2022-11-25T05:23:39;1.40;;;1.30;;
8640;SDS011;4358;42.100;25.222;2022-11-25T05:26:06;1.10;;;1.00;;
8640;SDS011;4358;42.100;25.222;2022-11-25T05:28:33;1.27;;;1.17;;
8640;SDS011;4358;42.100;25.222;2022-11-25T05:31:01;1.40;;;1.10;;
8640;SDS011;4358;42.100;25.222;2022-11-25T05:33:28;1.10;;;1.00;;
8640;SDS011;4358;42.100;25.222;2022-11-25T05:35:56;1.33;;;1.23;;
8640;SDS011;4358;42.100;25.222;2022-11-25T05:38:23;1.10;;;1.00;;
8640;SDS011;4358;42.100;25.222;2022-11-25T05:40:51;1.50;;;1.17;;
8640;SDS011;4358;42.100;25.222;2022-11-25T05:43:18;3.10;;;1.43;;
8640;SDS011;4358;42.100;25.222;2022-11-25T05:45:45;1.37;;;1.27;;
8640;SDS011;4358;42.100;25.222;2022-11-25T05:48:14;2.13;;;1.23;;
8640;SDS011;4358;42.100;25.222;2022-11-25T05:50:41;1.30;;;1.20;;
8640;SDS011;4358;42.100;25.222;2022-11-25T05:53:07;1.20;;;1.03;;
8640;SDS011;4358;42.100;25.222;2022-11-25T05:55:35;1.50;;;1.40;;
8640;SDS011;4358;42.100;25.222;2022-11-25T05:58:02;1.50;;;1.40;;
8640;SDS011;4358;42.100;25.222;2022-11-25T06:00:30;0.97;;;0.93;;
8640;SDS011;4358;42.100;25.222;2022-11-25T06:02:57;1.40;;;1.20;;
8640;SDS011;4358;42.100;25.222;2022-11-25T06:05:26;3.57;;;1.40;;
8640;SDS011;4358;42.100;25.222;2022-11-25T06:07:53;1.60;;;1.20;;
8640;SDS011;4358;42.100;25.222;2022-11-25T06:10:19;1.70;;;1.33;;
8640;SDS011;4358;42.100;25.222;2022-11-25T06:12:46;3.23;;;1.30;;
8640;SDS011;4358;42.100;25.222;2022-11-25T06:15:13;1.10;;;1.00;;
8640;SDS011;4358;42.100;25.222;2022-11-25T06:17:40;2.27;;;1.33;;
8640;SDS011;4358;42.100;25.222;2022-11-25T06:20:07;1.50;;;1.40;;
8640;SDS011;4358;42.100;25.222;2022-11-25T06:22:36;1.50;;;1.10;;
8640;SDS011;4358;42.100;25.222;2022-11-25T06:25:03;1.67;;;1.20;;
8640;SDS011;4358;42.100;25.222;2022-11-25T06:27:31;1.30;;;1.10;;
8640;SDS011;4358;42.100;25.222;2022-11-25T06:29:58;1.60;;;1.20;;
8640;SDS011;4358;42.100;25.222;2022-11-25T06:32:25;1.20;;;1.10;;
8640;SDS011;4358;42.100;25.222;2022-11-25T06:34:51;1.00;;;0.90;;
8640;SDS011;4358;42.100;25.222;2022-11-25T06:37:18;1.70;;;1.00;;
8640;SDS011;4358;42.100;25.222;2022-11-25T06:39:47;1.20;;;1.10;;
8640;SDS011;4358;42.100;25.222;2022-11-25T06:42:14;1.10;;;1.00;;
8640;SDS011;4358;42.100;25.222;2022-11-25T06:44:40;1.00;;;1.00;;
8640;SDS011;4358;42.100;25.222;2022-11-25T06:47:07;3.10;;;0.93;;
8640;SDS011;4358;42.100;25.222;2022-11-25T06:49:34;1.67;;;1.17;;
8640;SDS011;4358;42.100;25.222;2022-11-25T06:52:01;1.50;;;1.20;;
8640;SDS011;4358;42.100;25.222;2022-11-25T06:54:28;1.10;;;0.93;;
8640;SDS011;4358;42.100;25.222;2022-11-25T06:56:56;1.23;;;1.10;;
8640;SDS011;4358;42.100;25.222;2022-11-25T06:59:23;1.37;;;1.10;;
8640;SDS011;4358;42.100;25.222;2022-11-25T07:01:50;1.00;;;0.90;;
8640;SDS011;4358;42.100;25.222;2022-11-25T07:04:16;1.57;;;1.27;;
8640;SDS011;4358;42.100;25.222;2022-11-25T07:06:43;1.20;;;1.10;;
8640;SDS011;4358;42.100;25.222;2022-11-25T07:09:10;1.40;;;1.20;;
8640;SDS011;4358;42.100;25.222;2022-11-25T07:11:38;1.37;;;1.00;;
8640;SDS011;4358;42.100;25.222;2022-11-25T07:14:09;1.33;;;1.10;;
8640;SDS011;4358;42.100;25.222;2022-11-25T07:16:38;1.47;;;1.20;;
8640;SDS011;4358;42.100;25.222;2022-11-25T07:19:06;1.23;;;1.10;;
8640;SDS011;4358;42.100;25.222;2022-11-25T07:21:33;2.50;;;1.30;;
8640;SDS011;4358;42.100;25.222;2022-11-25T07:24:01;1.40;;;1.30;;
8640;SDS011;4358;42.100;25.222;2022-11-25T07:26:30;1.23;;;1.00;;
8640;SDS011;4358;42.100;25.222;2022-11-25T07:28:59;1.50;;;1.13;;
8640;SDS011;4358;42.100;25.222;2022-11-25T07:31:29;1.07;;;0.87;;
8640;SDS011;4358;42.100;25.222;2022-11-25T07:33:58;1.90;;;1.30;;
8640;SDS011;4358;42.100;25.222;2022-11-25T07:36:26;1.40;;;1.23;;
8640;SDS011;4358;42.100;25.222;2022-11-25T07:38:56;1.10;;;1.03;;
8640;SDS011;4358;42.100;25.222;2022-11-25T07:41:24;1.30;;;1.13;;
8640;SDS011;4358;42.100;25.222;2022-11-25T07:43:52;1.13;;;1.03;;
8640;SDS011;4358;42.100;25.222;2022-11-25T07:46:21;1.27;;;1.13;;
8640;SDS011;4358;42.100;25.222;2022-11-25T07:48:52;1.47;;;1.37;;
8640;SDS011;4358;42.100;25.222;2022-11-25T07:51:20;2.20;;;1.10;;
8640;SDS011;4358;42.100;25.222;2022-11-25T07:53:48;1.40;;;1.30;;
8640;SDS011;4358;42.100;25.222;2022-11-25T07:56:16;1.53;;;1.27;;
8640;SDS011;4358;42.100;25.222;2022-11-25T07:58:43;2.10;;;1.03;;
8640;SDS011;4358;42.100;25.222;2022-11-25T08:01:11;1.17;;;0.90;;
8640;SDS011;4358;42.100;25.222;2022-11-25T08:03:39;1.63;;;1.20;;
8640;SDS011;4358;42.100;25.222;2022-11-25T08:06:09;1.10;;;0.90;;
8640;SDS011;4358;42.100;25.222;2022-11-25T08:08:38;2.30;;;1.03;;
8640;SDS011;4358;42.100;25.222;2022-11-25T08:11:07;1.07;;;0.97;;
8640;SDS011;4358;42.100;25.222;2022-11-25T08:13:35;1.33;;;1.23;;
8640;SDS011;4358;42.100;25.222;2022-11-25T08:16:02;2.13;;;1.30;;
8640;SDS011;4358;42.100;25.222;2022-11-25T08:18:29;1.50;;;1.40;;
8640;SDS011;4358;42.100;25.222;2022-11-25T08:20:57;2.03;;;1.60;;
8640;SDS011;4358;42.100;25.222;2022-11-25T08:23:26;1.50;;;1.10;;
8640;SDS011;4358;42.100;25.222;2022-11-25T08:25:53;1.83;;;1.27;;
8640;SDS011;4358;42.100;25.222;2022-11-25T08:28:20;1.43;;;1.10;;
8640;SDS011;4358;42.100;25.222;2022-11-25T08:30:48;1.70;;;1.00;;
8640;SDS011;4358;42.100;25.222;2022-11-25T08:33:15;1.20;;;1.10;;
8640;SDS011;4358;42.100;25.222;2022-11-25T08:35:41;2.60;;;1.70;;
8640;SDS011;4358;42.100;25.222;2022-11-25T08:38:09;1.90;;;1.47;;
8640;SDS011;4358;42.100;25.222;2022-11-25T08:40:42;2.03;;;1.47;;
8640;SDS011;4358;42.100;25.222;2022-11-25T08:43:09;1.43;;;1.33;;
8640;SDS011;4358;42.100;25.222;2022-11-25T08:45:37;7.50;;;2.23;;
8640;SDS011;4358;42.100;25.222;2022-11-25T08:48:04;3.50;;;2.00;;
8640;SDS011;4358;42.100;25.222;2022-11-25T08:50:31;1.57;;;1.47;;
8640;SDS011;4358;42.100;25.222;2022-11-25T08:52:58;4.40;;;2.20;;
8640;SDS011;4358;42.100;25.222;2022-11-25T08:55:26;1.97;;;1.30;;
8640;SDS011;4358;42.100;25.222;2022-11-25T08:57:54;3.27;;;1.80;;
8640;SDS011;4358;42.100;25.222;2022-11-25T09:00:21;0.90;;;0.90;;
8640;SDS011;4358;42.100;25.222;2022-11-25T09:02:48;3.50;;;1.80;;
8640;SDS011;4358;42.100;25.222;2022-11-25T09:05:15;4.23;;;2.03;;
8640;SDS011;4358;42.100;25.222;2022-11-25T09:07:42;4.80;;;2.13;;
8640;SDS011;4358;42.100;25.222;2022-11-25T09:10:12;2.77;;;1.70;;
8640;SDS011;4358;42.100;25.222;2022-11-25T09:12:41;0.97;;;0.93;;
8640;SDS011;4358;42.100;25.222;2022-11-25T09:15:10;1.20;;;1.10;;
8640;SDS011;4358;42.100;25.222;2022-11-25T09:17:37;3.73;;;1.83;;
8640;SDS011;4358;42.100;25.222;2022-11-25T09:20:04;3.10;;;1.43;;
8640;SDS011;4358;42.100;25.222;2022-11-25T09:22:32;1.80;;;1.07;;
8640;SDS011;4358;42.100;25.222;2022-11-25T09:25:02;1.67;;;1.20;;
8640;SDS011;4358;42.100;25.222;2022-11-25T09:27:29;1.77;;;1.40;;
8640;SDS011;4358;42.100;25.222;2022-11-25T09:29:56;4.30;;;1.73;;
8640;SDS011;4358;42.100;25.222;2022-11-25T09:32:24;5.23;;;2.00;;
8640;SDS011;4358;42.100;25.222;2022-11-25T09:34:51;1.33;;;1.07;;
8640;SDS011;4358;42.100;25.222;2022-11-25T09:37:18;3.37;;;1.50;;
8640;SDS011;4358;42.100;25.222;2022-11-25T09:39:45;1.90;;;1.17;;
8640;SDS011;4358;42.100;25.222;2022-11-25T09:42:20;2.00;;;1.40;;
8640;SDS011;4358;42.100;25.222;2022-11-25T09:45:13;1.33;;;1.17;;
8640;SDS011;4358;42.100;25.222;2022-11-25T09:48:08;1.30;;;1.20;;
8640;SDS011;4358;42.100;25.222;2022-11-25T09:50:47;1.10;;;1.00;;
8640;SDS011;4358;42.100;25.222;2022-11-25T09:53:26;1.10;;;1.00;;
8640;SDS011;4358;42.100;25.222;2022-11-25T09:56:08;0.83;;;0.80;;
8640;SDS011;4358;42.100;25.222;2022-11-25T09:58:40;1.73;;;1.23;;
8640;SDS011;4358;42.100;25.222;2022-11-25T10:01:13;0.97;;;0.93;;
8640;SDS011;4358;42.100;25.222;2022-11-25T10:03:44;3.20;;;1.07;;
8640;SDS011;4358;42.100;25.222;2022-11-25T10:06:16;1.30;;;1.20;;
8640;SDS011;4358;42.100;25.222;2022-11-25T10:08:46;1.27;;;1.10;;
8640;SDS011;4358;42.100;25.222;2022-11-25T10:11:17;0.93;;;0.93;;
8640;SDS011;4358;42.100;25.222;2022-11-25T10:13:53;0.90;;;0.90;;
8640;SDS011;4358;42.100;25.222;2022-11-25T10:16:27;1.20;;;0.90;;
8640;SDS011;4358;42.100;25.222;2022-11-25T10:19:02;1.97;;;1.40;;
8640;SDS011;4358;42.100;25.222;2022-11-25T10:21:37;1.17;;;1.00;;
8640;SDS011;4358;42.100;25.222;2022-11-25T10:24:05;1.13;;;1.03;;
8640;SDS011;4358;42.100;25.222;2022-11-25T10:26:39;1.43;;;1.30;;
8640;SDS011;4358;42.100;25.222;2022-11-25T10:29:22;1.20;;;1.10;;
8640;SDS011;4358;42.100;25.222;2022-11-25T10:31:54;1.90;;;1.40;;
8640;SDS011;4358;42.100;25.222;2022-11-25T10:34:30;1.40;;;1.27;;
8640;SDS011;4358;42.100;25.222;2022-11-25T10:37:04;1.33;;;1.00;;
8640;SDS011;4358;42.100;25.222;2022-11-25T10:39:38;1.20;;;1.10;;
8640;SDS011;4358;42.100;25.222;2022-11-25T10:42:16;1.20;;;1.10;;
8640;SDS011;4358;42.100;25.222;2022-11-25T10:44:46;1.40;;;1.10;;
8640;SDS011;4358;42.100;25.222;2022-11-25T10:47:21;1.80;;;1.30;;
8640;SDS011;4358;42.100;25.222;2022-11-25T10:50:10;1.83;;;1.50;;
8640;SDS011;4358;42.100;25.222;2022-11-25T10:52:43;1.67;;;1.33;;
8640;SDS011;4358;42.100;25.222;2022-11-25T10:55:16;1.47;;;1.23;;
8640;SDS011;4358;42.100;25.222;2022-11-25T10:57:44;1.03;;;1.03;;
8640;SDS011;4358;42.100;25.222;2022-11-25T11:00:23;1.27;;;1.10;;
8640;SDS011;4358;42.100;25.222;2022-11-25T11:02:56;1.83;;;0.90;;
8640;SDS011;4358;42.100;25.222;2022-11-25T11:05:25;1.20;;;1.10;;
8640;SDS011;4358;42.100;25.222;2022-11-25T11:08:14;1.20;;;1.10;;
8640;SDS011;4358;42.100;25.222;2022-11-25T11:10:43;1.90;;;1.30;;
8640;SDS011;4358;42.100;25.222;2022-11-25T11:13:19;1.00;;;0.90;;
8640;SDS011;4358;42.100;25.222;2022-11-25T11:15:49;2.20;;;1.50;;
8640;SDS011;4358;42.100;25.222;2022-11-25T11:18:22;5.43;;;2.60;;
8640;SDS011;4358;42.100;25.222;2022-11-25T11:20:53;2.13;;;1.83;;
8640;SDS011;4358;42.100;25.222;2022-11-25T11:23:22;1.90;;;1.20;;
8640;SDS011;4358;42.100;25.222;2022-11-25T11:25:59;1.70;;;0.80;;
8640;SDS011;4358;42.100;25.222;2022-11-25T11:28:30;1.43;;;1.20;;
8640;SDS011;4358;42.100;25.222;2022-11-25T11:31:05;2.50;;;0.90;;
8640;SDS011;4358;42.100;25.222;2022-11-25T11:33:42;1.10;;;1.00;;
8640;SDS011;4358;42.100;25.222;2022-11-25T11:36:30;1.17;;;1.07;;
8640;SDS011;4358;42.100;25.222;2022-11-25T11:39:09;0.70;;;0.70;;
8640;SDS011;4358;42.100;25.222;2022-11-25T11:41:50;1.00;;;0.90;;
8640;SDS011;4358;42.100;25.222;2022-11-25T11:44:23;1.00;;;0.90;;
8640;SDS011;4358;42.100;25.222;2022-11-25T11:47:04;1.07;;;0.97;;
8640;SDS011;4358;42.100;25.222;2022-11-25T11:52:38;0.93;;;0.93;;
8640;SDS011;4358;42.100;25.222;2022-11-25T11:55:16;2.43;;;1.00;;
8640;SDS011;4358;42.100;25.222;2022-11-25T11:57:58;1.00;;;0.90;;
8640;SDS011;4358;42.100;25.222;2022-11-25T12:00:32;1.23;;;0.90;;
8640;SDS011;4358;42.100;25.222;2022-11-25T12:03:10;0.77;;;0.73;;
8640;SDS011;4358;42.100;25.222;2022-11-25T12:05:40;0.97;;;0.87;;
8640;SDS011;4358;42.100;25.222;2022-11-25T12:08:10;1.37;;;1.10;;
8640;SDS011;4358;42.100;25.222;2022-11-25T12:10:42;0.73;;;0.70;;
8640;SDS011;4358;42.100;25.222;2022-11-25T12:13:14;1.33;;;0.80;;
8640;SDS011;4358;42.100;25.222;2022-11-25T12:15:46;1.03;;;0.93;;
8640;SDS011;4358;42.100;25.222;2022-11-25T12:18:22;1.00;;;0.90;;
8640;SDS011;4358;42.100;25.222;2022-11-25T12:20:59;1.43;;;1.10;;
8640;SDS011;4358;42.100;25.222;2022-11-25T12:23:30;1.13;;;0.70;;
8640;SDS011;4358;42.100;25.222;2022-11-25T12:26:08;0.93;;;0.80;;
8640;SDS011;4358;42.100;25.222;2022-11-25T12:28:39;1.47;;;1.00;;
8640;SDS011;4358;42.100;25.222;2022-11-25T12:31:11;0.90;;;0.90;;
8640;SDS011;4358;42.100;25.222;2022-11-25T12:33:47;1.33;;;1.10;;
8640;SDS011;4358;42.100;25.222;2022-11-25T12:36:21;2.37;;;1.30;;
8640;SDS011;4358;42.100;25.222;2022-11-25T12:38:59;1.40;;;1.10;;
8640;SDS011;4358;42.100;25.222;2022-11-25T12:41:29;0.97;;;0.97;;
8640;SDS011;4358;42.100;25.222;2022-11-25T12:44:06;1.10;;;1.00;;
8640;SDS011;4358;42.100;25.222;2022-11-25T12:46:38;1.40;;;1.30;;
8640;SDS011;4358;42.100;25.222;2022-11-25T12:49:15;2.30;;;1.20;;
8640;SDS011;4358;42.100;25.222;2022-11-25T12:51:49;4.77;;;1.20;;
8640;SDS011;4358;42.100;25.222;2022-11-25T12:54:40;1.10;;;1.00;;
8640;SDS011;4358;42.100;25.222;2022-11-25T13:00:17;3.43;;;1.03;;
8640;SDS011;4358;42.100;25.222;2022-11-25T13:03:00;1.57;;;1.30;;
8640;SDS011;4358;42.100;25.222;2022-11-25T13:08:53;1.10;;;0.87;;
8640;SDS011;4358;42.100;25.222;2022-11-25T13:11:44;1.37;;;1.00;;
8640;SDS011;4358;42.100;25.222;2022-11-25T13:14:23;2.27;;;1.40;;
8640;SDS011;4358;42.100;25.222;2022-11-25T13:16:53;1.30;;;1.10;;
8640;SDS011;4358;42.100;25.222;2022-11-25T13:19:21;1.20;;;1.10;;
8640;SDS011;4358;42.100;25.222;2022-11-25T13:21:55;1.23;;;1.13;;
8640;SDS011;4358;42.100;25.222;2022-11-25T13:24:27;1.10;;;1.00;;
8640;SDS011;4358;42.100;25.222;2022-11-25T13:26:58;1.17;;;1.00;;
8640;SDS011;4358;42.100;25.222;2022-11-25T13:32:35;1.37;;;1.00;;
8640;SDS011;4358;42.100;25.222;2022-11-25T13:38:34;1.50;;;1.40;;
8640;SDS011;4358;42.100;25.222;2022-11-25T13:41:20;0.97;;;0.93;;
8640;SDS011;4358;42.100;25.222;2022-11-25T13:44:04;1.40;;;1.30;;
8640;SDS011;4358;42.100;25.222;2022-11-25T13:46:37;1.40;;;1.30;;
8640;SDS011;4358;42.100;25.222;2022-11-25T13:49:19;1.47;;;1.37;;
8640;SDS011;4358;42.100;25.222;2022-11-25T13:51:50;1.20;;;1.10;;
8640;SDS011;4358;42.100;25.222;2022-11-25T13:54:19;1.13;;;0.97;;
8640;SDS011;4358;42.100;25.222;2022-11-25T13:57:00;1.23;;;1.13;;
8640;SDS011;4358;42.100;25.222;2022-11-25T13:59:52;1.47;;;1.20;;
8640;SDS011;4358;42.100;25.222;2022-11-25T14:02:32;1.27;;;1.17;;
8640;SDS011;4358;42.100;25.222;2022-11-25T14:08:09;2.03;;;1.10;;
8640;SDS011;4358;42.100;25.222;2022-11-25T14:10:48;1.70;;;1.50;;
8640;SDS011;4358;42.100;25.222;2022-11-25T14:13:26;1.23;;;1.13;;
8640;SDS011;4358;42.100;25.222;2022-11-25T14:16:14;1.63;;;1.33;;
8640;SDS011;4358;42.100;25.222;2022-11-25T14:18:55;1.43;;;1.17;;
8640;SDS011;4358;42.100;25.222;2022-11-25T14:21:40;1.47;;;1.37;;
8640;SDS011;4358;42.100;25.222;2022-11-25T14:24:21;1.93;;;1.57;;
8640;SDS011;4358;42.100;25.222;2022-11-25T14:26:55;2.10;;;1.80;;
8640;SDS011;4358;42.100;25.222;2022-11-25T14:29:24;2.93;;;1.80;;
8640;SDS011;4358;42.100;25.222;2022-11-25T14:31:58;2.30;;;1.93;;
8640;SDS011;4358;42.100;25.222;2022-11-25T14:34:29;3.30;;;1.50;;
8640;SDS011;4358;42.100;25.222;2022-11-25T14:37:00;2.63;;;2.10;;
8640;SDS011;4358;42.100;25.222;2022-11-25T14:39:35;2.33;;;1.70;;
8640;SDS011;4358;42.100;25.222;2022-11-25T14:42:07;1.93;;;1.47;;
8640;SDS011;4358;42.100;25.222;2022-11-25T14:44:38;5.23;;;1.37;;
8640;SDS011;4358;42.100;25.222;2022-11-25T14:47:11;2.47;;;1.90;;
8640;SDS011;4358;42.100;25.222;2022-11-25T14:49:42;3.03;;;1.90;;
8640;SDS011;4358;42.100;25.222;2022-11-25T14:52:14;3.20;;;2.23;;
8640;SDS011;4358;42.100;25.222;2022-11-25T14:54:42;3.77;;;2.07;;
8640;SDS011;4358;42.100;25.222;2022-11-25T14:57:10;3.50;;;2.47;;
8640;SDS011;4358;42.100;25.222;2022-11-25T14:59:37;2.97;;;1.73;;
8640;SDS011;4358;42.100;25.222;2022-11-25T15:02:04;2.20;;;1.50;;
8640;SDS011;4358;42.100;25.222;2022-11-25T15:04:32;1.87;;;1.50;;
8640;SDS011;4358;42.100;25.222;2022-11-25T15:06:59;2.37;;;2.17;;
8640;SDS011;4358;42.100;25.222;2022-11-25T15:09:27;1.60;;;1.47;;
8640;SDS011;4358;42.100;25.222;2022-11-25T15:11:56;2.97;;;1.60;;
8640;SDS011;4358;42.100;25.222;2022-11-25T15:14:26;3.20;;;1.60;;
8640;SDS011;4358;42.100;25.222;2022-11-25T15:16:54;1.60;;;1.50;;
8640;SDS011;4358;42.100;25.222;2022-11-25T15:19:23;1.57;;;1.40;;
8640;SDS011;4358;42.100;25.222;2022-11-25T15:21:56;1.80;;;1.47;;
8640;SDS011;4358;42.100;25.222;2022-11-25T15:24:27;2.50;;;1.57;;
8640;SDS011;4358;42.100;25.222;2022-11-25T15:26:55;1.80;;;1.47;;
8640;SDS011;4358;42.100;25.222;2022-11-25T15:29:23;3.33;;;2.10;;
8640;SDS011;4358;42.100;25.222;2022-11-25T15:31:53;5.10;;;2.50;;
8640;SDS011;4358;42.100;25.222;2022-11-25T15:34:21;2.40;;;2.10;;
8640;SDS011;4358;42.100;25.222;2022-11-25T15:36:49;4.97;;;2.03;;
8640;SDS011;4358;42.100;25.222;2022-11-25T15:39:23;2.83;;;1.93;;